Time;durP1;ratioP1;P1;durP2;ratioP2;P2;SDS_P1;SDS_P2;PMS_P1;PMS_P2;Temp;Humidity;BMP_temperature;BMP_pressure;BME280_temperature;BME280_humidity;BME280_pressure;Samples;Min_cycle;Max_cycle;Signal;HPM_P1;HPM_P2
2022/03/17 00:00:42;;;;;;;;;;;10.20;99.90;;;;;;5084440;28;19953;-79
2022/03/17 00:03:07;;;;;;;;;;;10.20;99.90;;;;;;5082161;28;19938;-84
2022/03/17 00:05:33;;;;;;;;;;;10.20;99.90;;;;;;5088438;28;19937;-79
2022/03/17 00:07:58;;;;;;;;;;;10.10;99.90;;;;;;5083425;28;19937;-78
2022/03/17 00:10:24;;;;;;;;;;;10.10;99.90;;;;;;5081934;28;19952;-85
2022/03/17 00:12:49;;;;;;;;;;;10.10;99.90;;;;;;5085955;28;19931;-79
2022/03/17 00:15:15;;;;;;;;;;;10.70;99.90;;;;;;5085307;28;20012;-79
2022/03/17 00:17:41;;;;;;;;;;;10.10;99.90;;;;;;5076659;28;19932;-80
2022/03/17 00:20:07;;;;;;;;;;;10.10;99.90;;;;;;5082536;28;19950;-80
2022/03/17 00:22:33;;;;;;;;;;;10.10;99.90;;;;;;5084829;28;20081;-81
2022/03/17 00:24:59;;;;;;;;;;;10.00;99.90;;;;;;5086561;28;19938;-80
2022/03/17 00:27:24;;;;;;;;;;;10.00;99.90;;;;;;5087472;28;20433;-80
2022/03/17 00:29:50;;;;;;;;;;;10.00;99.90;;;;;;5072328;28;20352;-82
2022/03/17 00:32:16;;;;;;;;;;;10.00;99.90;;;;;;5085680;28;19948;-80
2022/03/17 00:37:25;;;;;;;;;;;10.00;99.90;;;;;;5084208;28;20415;-87
2022/03/17 00:39:52;;;;;;;;;;;10.00;99.90;;;;;;5087325;28;20108;-82
2022/03/17 00:42:18;;;;;;;;;;;10.00;99.90;;;;;;5086926;28;19960;-83
2022/03/17 00:44:46;;;;;;;;;;;10.00;99.90;;;;;;5085870;28;19941;-81
2022/03/17 00:47:12;;;;;;;;;;;10.00;99.90;;;;;;5088033;28;19984;-83
2022/03/17 00:49:38;;;;;;;;;;;9.90;99.90;;;;;;5085957;28;19993;-81
2022/03/17 00:52:09;;;;;;;;;;;9.90;99.90;;;;;;5083791;28;20358;-80
2022/03/17 00:54:44;;;;;;;;;;;9.90;99.90;;;;;;5083420;28;19920;-81
2022/03/17 00:57:10;;;;;;;;;;;10.00;99.90;;;;;;5082818;28;20015;-82
2022/03/17 00:59:40;;;;;;;;;;;9.90;99.90;;;;;;5076337;28;20485;-80
2022/03/17 01:02:06;;;;;;;;;;;9.90;99.90;;;;;;5087440;28;20019;-79
2022/03/17 01:04:32;;;;;;;;;;;9.90;99.90;;;;;;5078476;28;19957;-79
2022/03/17 01:06:58;;;;;;;;;;;9.90;99.90;;;;;;5086048;28;19940;-82
2022/03/17 01:09:23;;;;;;;;;;;9.90;99.90;;;;;;5080101;28;19939;-79
2022/03/17 01:11:50;;;;;;;;;;;9.90;99.90;;;;;;5076458;28;19931;-79
2022/03/17 01:14:16;;;;;;;;;;;9.90;99.90;;;;;;5081918;28;20175;-80
2022/03/17 01:16:42;;;;;;;;;;;9.90;99.90;;;;;;5082160;28;20048;-80
2022/03/17 01:19:08;;;;;;;;;;;9.90;99.90;;;;;;5072438;28;19935;-79
2022/03/17 01:21:34;;;;;;;;;;;9.90;99.90;;;;;;5084544;28;20277;-80
2022/03/17 01:24:01;;;;;;;;;;;9.90;99.90;;;;;;5084821;28;19935;-78
2022/03/17 01:26:28;;;;;;;;;;;9.90;99.90;;;;;;5082495;28;19934;-81
2022/03/17 01:28:53;;;;;;;;;;;10.20;99.90;;;;;;5077120;28;19944;-80
2022/03/17 01:31:23;;;;;;;;;;;9.90;99.90;;;;;;5086440;28;20021;-81
2022/03/17 01:33:48;;;;;;;;;;;9.60;99.90;;;;;;5085680;28;20044;-82
2022/03/17 01:36:14;;;;;;;;;;;9.90;99.90;;;;;;5085620;28;20038;-80
2022/03/17 01:38:39;;;;;;;;;;;9.80;99.90;;;;;;5084611;28;20366;-80
2022/03/17 01:41:05;;;;;;;;;;;9.90;99.90;;;;;;5084625;28;20263;-85
2022/03/17 01:43:31;;;;;;;;;;;9.90;99.90;;;;;;5084441;28;19942;-85
2022/03/17 01:45:56;;;;;;;;;;;9.90;99.90;;;;;;5084955;28;19932;-82
2022/03/17 01:48:22;;;;;;;;;;;9.80;99.90;;;;;;5086304;28;19934;-80
2022/03/17 01:50:53;;;;;;;;;;;9.80;99.90;;;;;;5083700;28;20018;-82
2022/03/17 01:53:22;;;;;;;;;;;9.70;99.90;;;;;;5078602;28;19936;-79
2022/03/17 01:55:49;;;;;;;;;;;9.80;99.90;;;;;;5088371;28;20295;-80
2022/03/17 01:58:15;;;;;;;;;;;9.80;99.90;;;;;;5086614;28;19941;-80
2022/03/17 02:00:42;;;;;;;;;;;9.80;99.90;;;;;;5086668;28;19961;-82
2022/03/17 02:03:08;;;;;;;;;;;9.70;99.90;;;;;;5088550;28;20126;-81
2022/03/17 02:05:34;;;;;;;;;;;10.10;99.90;;;;;;5089910;28;20080;-78
2022/03/17 02:08:00;;;;;;;;;;;11.00;99.90;;;;;;5088567;28;19934;-80
2022/03/17 02:13:08;;;;;;;;;;;9.80;99.90;;;;;;5090619;28;19968;-80
2022/03/17 02:13:17;;;;;;;;;;;9.70;99.90;;;;;;5084118;28;20323;-79
2022/03/17 02:15:43;;;;;;;;;;;9.70;99.90;;;;;;5084335;28;19935;-80
2022/03/17 02:18:09;;;;;;;;;;;9.70;99.90;;;;;;5085832;28;19974;-82
2022/03/17 02:20:35;;;;;;;;;;;9.70;99.90;;;;;;5089068;28;19930;-81
2022/03/17 02:25:54;;;;;;;;;;;9.70;99.90;;;;;;5090176;28;19974;-78
2022/03/17 02:28:20;;;;;;;;;;;9.70;99.90;;;;;;5089248;28;19928;-82
2022/03/17 02:30:46;;;;;;;;;;;9.70;99.90;;;;;;5089494;28;19920;-82
2022/03/17 02:33:16;;;;;;;;;;;9.70;99.90;;;;;;5085475;28;20003;-81
2022/03/17 02:35:42;;;;;;;;;;;9.70;99.90;;;;;;5078751;28;20375;-81
2022/03/17 02:38:08;;;;;;;;;;;9.70;99.90;;;;;;5085620;28;20010;-82
2022/03/17 02:40:35;;;;;;;;;;;10.60;99.90;;;;;;5088579;28;20009;-83
2022/03/17 02:43:01;;;;;;;;;;;9.80;99.90;;;;;;5089608;28;19930;-82
2022/03/17 02:45:27;;;;;;;;;;;9.80;99.90;;;;;;5088540;28;19965;-82
2022/03/17 02:47:53;;;;;;;;;;;9.80;99.90;;;;;;5089874;28;19928;-81
2022/03/17 02:50:18;;;;;;;;;;;9.80;99.90;;;;;;5088860;28;19958;-81
2022/03/17 02:52:44;;;;;;;;;;;10.00;99.90;;;;;;5085636;28;19920;-80
2022/03/17 02:55:14;;;;;;;;;;;9.80;99.90;;;;;;5077079;28;20019;-82
2022/03/17 02:57:40;;;;;;;;;;;9.80;99.90;;;;;;5088434;28;19985;-81
2022/03/17 03:00:06;;;;;;;;;;;9.80;99.90;;;;;;5086771;28;19950;-80
2022/03/17 03:02:32;;;;;;;;;;;9.80;99.90;;;;;;5088417;28;19978;-83
2022/03/17 03:04:58;;;;;;;;;;;9.80;99.90;;;;;;5088925;28;19922;-82
2022/03/17 03:07:24;;;;;;;;;;;9.80;99.90;;;;;;5087181;28;19984;-81
2022/03/17 03:09:51;;;;;;;;;;;9.80;99.90;;;;;;5087861;28;20412;-80
2022/03/17 03:12:16;;;;;;;;;;;9.80;99.90;;;;;;5083464;28;19963;-80
2022/03/17 03:14:42;;;;;;;;;;;10.60;99.90;;;;;;5084185;28;19966;-80
2022/03/17 03:17:08;;;;;;;;;;;9.80;99.90;;;;;;5087508;28;19920;-83
2022/03/17 03:19:33;;;;;;;;;;;9.80;99.90;;;;;;5089668;28;20033;-82
2022/03/17 03:21:59;;;;;;;;;;;9.80;99.90;;;;;;5086025;28;19942;-85
2022/03/17 03:24:25;;;;;;;;;;;9.80;99.90;;;;;;5083785;28;19959;-83
2022/03/17 03:26:52;;;;;;;;;;;9.80;99.90;;;;;;5086765;28;19938;-82
2022/03/17 03:31:43;;;;;;;;;;;9.80;99.90;;;;;;5086037;28;19954;-86
2022/03/17 03:34:11;;;;;;;;;;;9.80;99.90;;;;;;5085588;28;19939;-84
2022/03/17 03:39:21;;;;;;;;;;;9.90;99.90;;;;;;5083596;28;19920;-81
2022/03/17 03:41:46;;;;;;;;;;;9.80;99.90;;;;;;5087840;28;19997;-79
2022/03/17 03:44:15;;;;;;;;;;;9.90;99.90;;;;;;5083391;28;19940;-80
2022/03/17 03:46:41;;;;;;;;;;;9.90;99.90;;;;;;5076789;28;19936;-80
2022/03/17 03:49:07;;;;;;;;;;;9.90;99.90;;;;;;5086905;28;19988;-79
2022/03/17 03:51:32;;;;;;;;;;;10.80;99.90;;;;;;5079833;28;19952;-86
2022/03/17 03:54:17;;;;;;;;;;;9.90;99.90;;;;;;5083684;28;19937;-81
2022/03/17 03:56:50;;;;;;;;;;;9.90;99.90;;;;;;5088232;28;20348;-80
2022/03/17 03:59:23;;;;;;;;;;;9.90;99.90;;;;;;5086764;28;19942;-79
2022/03/17 04:01:53;;;;;;;;;;;9.90;99.90;;;;;;5086045;28;19934;-82
2022/03/17 04:04:19;;;;;;;;;;;9.90;99.90;;;;;;5076026;28;19947;-85
2022/03/17 04:06:48;;;;;;;;;;;9.90;99.90;;;;;;5086881;28;19938;-78
2022/03/17 04:09:14;;;;;;;;;;;11.40;99.90;;;;;;5086006;28;20009;-80
2022/03/17 04:11:43;;;;;;;;;;;10.00;99.90;;;;;;5087251;28;20468;-81
2022/03/17 04:14:09;;;;;;;;;;;10.00;99.90;;;;;;5078663;28;19990;-80
2022/03/17 04:16:34;;;;;;;;;;;10.10;99.90;;;;;;5084275;28;19928;-82
2022/03/17 04:19:00;;;;;;;;;;;10.10;99.90;;;;;;5081261;28;20614;-81
2022/03/17 04:21:25;;;;;;;;;;;10.10;99.90;;;;;;5086913;28;19926;-81
2022/03/17 04:23:51;;;;;;;;;;;10.10;99.90;;;;;;5081012;28;19950;-83
2022/03/17 04:26:17;;;;;;;;;;;10.10;99.90;;;;;;5083098;28;19999;-78
2022/03/17 04:28:43;;;;;;;;;;;10.00;99.90;;;;;;5085900;28;19915;-85
2022/03/17 04:31:08;;;;;;;;;;;10.00;99.90;;;;;;5079099;28;20016;-84
2022/03/17 04:33:34;;;;;;;;;;;10.00;99.90;;;;;;5086645;28;19927;-83
2022/03/17 04:36:01;;;;;;;;;;;10.00;99.90;;;;;;5088108;28;19938;-85
2022/03/17 04:38:27;;;;;;;;;;;10.00;99.90;;;;;;5084868;28;20367;-83
2022/03/17 04:40:52;;;;;;;;;;;9.90;99.90;;;;;;5087528;28;19935;-82
2022/03/17 04:43:18;;;;;;;;;;;10.80;99.90;;;;;;5085437;28;19955;-83
2022/03/17 04:45:44;;;;;;;;;;;9.90;99.90;;;;;;5087256;28;19964;-80
2022/03/17 04:48:10;;;;;;;;;;;9.90;99.90;;;;;;5083508;28;19992;-80
2022/03/17 04:50:36;;;;;;;;;;;9.80;99.90;;;;;;5084359;28;20005;-88
2022/03/17 04:55:45;;;;;;;;;;;9.80;99.90;;;;;;5085694;28;19930;-81
2022/03/17 04:58:11;;;;;;;;;;;9.70;99.90;;;;;;5077095;28;19968;-82
2022/03/17 05:00:36;;;;;;;;;;;9.70;99.90;;;;;;5082693;28;19951;-81
2022/03/17 05:03:02;;;;;;;;;;;9.60;99.90;;;;;;5085682;28;19938;-82
2022/03/17 05:05:28;;;;;;;;;;;9.50;99.90;;;;;;5086008;28;19943;-86
2022/03/17 05:08:08;;;;;;;;;;;9.50;99.90;;;;;;5062312;28;19941;-79
2022/03/17 05:10:35;;;;;;;;;;;9.50;99.90;;;;;;5061605;28;19952;-85
2022/03/17 05:13:02;;;;;;;;;;;9.40;99.90;;;;;;5063410;28;20018;-81
2022/03/17 05:15:28;;;;;;;;;;;9.40;99.90;;;;;;5061881;28;19995;-87
2022/03/17 05:17:54;;;;;;;;;;;9.40;99.90;;;;;;5061643;28;20013;-81
2022/03/17 05:20:19;;;;;;;;;;;9.30;99.90;;;;;;5063878;28;20055;-80
2022/03/17 05:22:47;;;;;;;;;;;9.30;99.90;;;;;;5061799;28;19964;-80
2022/03/17 05:25:14;;;;;;;;;;;9.30;99.90;;;;;;5056863;28;20077;-85
2022/03/17 05:27:59;;;;;;;;;;;8.80;99.90;;;;;;5040720;28;20035;-83
2022/03/17 05:30:29;;;;;;;;;;;8.70;99.90;;;;;;5059081;28;19947;-85
2022/03/17 05:32:55;;;;;;;;;;;9.20;99.90;;;;;;5063934;28;20025;-80
2022/03/17 05:35:22;;;;;;;;;;;9.10;99.90;;;;;;5047760;28;20418;-80
2022/03/17 05:37:48;;;;;;;;;;;9.00;99.90;;;;;;5064638;28;19931;-80
2022/03/17 05:40:15;;;;;;;;;;;8.90;99.90;;;;;;5089378;28;19950;-84
2022/03/17 05:42:48;;;;;;;;;;;8.80;99.90;;;;;;5088578;28;19936;-80
2022/03/17 05:45:15;;;;;;;;;;;8.60;99.90;;;;;;5086868;28;19934;-80
2022/03/17 05:47:45;;;;;;;;;;;8.60;99.90;;;;;;5089287;28;19948;-79
2022/03/17 05:50:14;;;;;;;;;;;8.50;99.90;;;;;;5081245;28;20345;-81
2022/03/17 05:52:44;;;;;;;;;;;8.20;99.90;;;;;;5087849;28;19928;-81
2022/03/17 05:55:14;;;;;;;;;;;8.30;99.90;;;;;;5088450;28;19924;-80
2022/03/17 05:57:41;;;;;;;;;;;8.30;99.90;;;;;;5088145;28;20341;-80
2022/03/17 06:00:25;;;;;;;;;;;8.20;99.90;;;;;;5083469;28;20022;-83
2022/03/17 06:02:56;;;;;;;;;;;8.20;99.90;;;;;;5081787;28;20294;-81
2022/03/17 06:05:21;;;;;;;;;;;8.10;99.90;;;;;;5084594;28;20370;-80
2022/03/17 06:07:58;;;;;;;;;;;8.10;99.90;;;;;;5089105;28;19948;-81
2022/03/17 06:10:41;;;;;;;;;;;8.00;99.90;;;;;;5084086;28;19986;-79
2022/03/17 06:13:10;;;;;;;;;;;8.00;99.90;;;;;;5089830;28;20324;-80
2022/03/17 06:15:35;;;;;;;;;;;8.00;99.90;;;;;;5074645;28;20025;-81
2022/03/17 06:18:04;;;;;;;;;;;7.90;99.90;;;;;;5087330;28;20376;-82
2022/03/17 06:20:38;;;;;;;;;;;7.90;99.90;;;;;;5089407;28;20365;-83
2022/03/17 06:23:04;;;;;;;;;;;7.90;99.90;;;;;;5088975;28;20316;-83
2022/03/17 06:25:39;;;;;;;;;;;7.80;99.90;;;;;;5070509;28;19943;-85
2022/03/17 06:28:23;;;;;;;;;;;7.80;99.90;;;;;;5075435;28;19942;-83
2022/03/17 06:30:49;;;;;;;;;;;8.50;99.90;;;;;;5086947;28;19954;-84
2022/03/17 06:33:16;;;;;;;;;;;7.70;99.90;;;;;;5086443;28;20390;-80
2022/03/17 06:35:41;;;;;;;;;;;7.60;99.90;;;;;;5088696;28;19943;-83
2022/03/17 06:38:07;;;;;;;;;;;7.60;99.90;;;;;;5084903;28;19950;-79
2022/03/17 06:40:33;;;;;;;;;;;7.60;99.90;;;;;;5089309;28;19949;-80
2022/03/17 06:42:59;;;;;;;;;;;7.60;99.90;;;;;;5084298;28;19938;-81
2022/03/17 06:45:27;;;;;;;;;;;7.50;99.90;;;;;;5083602;28;20048;-80
2022/03/17 06:47:52;;;;;;;;;;;8.30;99.90;;;;;;5075275;28;20289;-79
2022/03/17 06:50:20;;;;;;;;;;;7.50;99.90;;;;;;5086709;28;19960;-82
2022/03/17 06:52:45;;;;;;;;;;;7.60;99.90;;;;;;5085986;28;19985;-80
2022/03/17 06:55:11;;;;;;;;;;;7.60;99.90;;;;;;5083953;28;20026;-80
2022/03/17 06:57:37;;;;;;;;;;;8.60;99.90;;;;;;5081246;28;19934;-81
2022/03/17 07:00:04;;;;;;;;;;;8.40;99.90;;;;;;5087864;28;19954;-80
2022/03/17 07:02:30;;;;;;;;;;;7.50;99.90;;;;;;5086491;28;20004;-81
2022/03/17 07:04:55;;;;;;;;;;;7.50;99.90;;;;;;5084548;28;20033;-80
2022/03/17 07:07:21;;;;;;;;;;;7.50;99.90;;;;;;5088814;28;20410;-80
2022/03/17 07:09:46;;;;;;;;;;;7.50;99.90;;;;;;5088602;28;19970;-82
2022/03/17 07:12:12;;;;;;;;;;;7.20;99.90;;;;;;5087594;28;20364;-88
2022/03/17 07:14:38;;;;;;;;;;;7.50;99.90;;;;;;5086945;28;19943;-84
2022/03/17 07:17:04;;;;;;;;;;;7.50;99.90;;;;;;5082555;28;19920;-82
2022/03/17 07:19:30;;;;;;;;;;;7.40;99.90;;;;;;5082266;28;19927;-85
2022/03/17 07:21:55;;;;;;;;;;;7.40;99.90;;;;;;5084522;28;20005;-83
2022/03/17 07:24:21;;;;;;;;;;;7.40;99.90;;;;;;5086622;28;19958;-82
2022/03/17 07:26:46;;;;;;;;;;;7.40;99.90;;;;;;5088361;28;19952;-84
2022/03/17 07:29:12;;;;;;;;;;;7.40;99.90;;;;;;5088401;28;19944;-83
2022/03/17 07:31:37;;;;;;;;;;;7.40;99.90;;;;;;5082450;28;19919;-82
2022/03/17 07:34:03;;;;;;;;;;;7.40;99.90;;;;;;5087855;28;20039;-84
2022/03/17 07:36:29;;;;;;;;;;;8.10;99.90;;;;;;5081841;28;20054;-85
2022/03/17 07:38:55;;;;;;;;;;;7.40;99.90;;;;;;5094173;28;19920;-81
2022/03/17 07:41:21;;;;;;;;;;;7.40;99.90;;;;;;5087596;28;20002;-83
2022/03/17 07:43:46;;;;;;;;;;;7.40;99.90;;;;;;5089279;28;19941;-84
2022/03/17 07:46:12;;;;;;;;;;;7.40;99.90;;;;;;5081896;28;19973;-82
2022/03/17 07:48:38;;;;;;;;;;;7.40;99.90;;;;;;5087948;28;20399;-83
2022/03/17 07:51:03;;;;;;;;;;;7.40;99.90;;;;;;5083754;28;19954;-82
2022/03/17 07:53:32;;;;;;;;;;;7.40;99.90;;;;;;5086128;28;20665;-82
2022/03/17 07:55:57;;;;;;;;;;;8.20;99.90;;;;;;5075657;28;20025;-84
2022/03/17 07:58:26;;;;;;;;;;;7.40;99.90;;;;;;5086850;28;19937;-82
2022/03/17 08:00:52;;;;;;;;;;;7.40;99.90;;;;;;5070593;28;19920;-84
2022/03/17 08:03:18;;;;;;;;;;;7.40;99.90;;;;;;5087166;28;19954;-84
2022/03/17 08:05:46;;;;;;;;;;;7.40;99.90;;;;;;5086016;28;19923;-84
2022/03/17 08:08:12;;;;;;;;;;;7.40;99.90;;;;;;5076687;28;20058;-84
2022/03/17 08:10:38;;;;;;;;;;;8.10;99.90;;;;;;5085832;28;19962;-81
2022/03/17 08:13:08;;;;;;;;;;;7.40;99.90;;;;;;5086150;28;20346;-85
2022/03/17 08:15:33;;;;;;;;;;;8.50;99.90;;;;;;5086304;28;19931;-81
2022/03/17 08:17:59;;;;;;;;;;;7.40;99.90;;;;;;5079746;28;19931;-84
2022/03/17 08:20:26;;;;;;;;;;;7.40;99.90;;;;;;5078342;28;19924;-82
2022/03/17 08:22:51;;;;;;;;;;;7.40;99.90;;;;;;5084449;28;20330;-83
2022/03/17 08:25:29;;;;;;;;;;;7.40;99.90;;;;;;5088047;28;19934;-82
2022/03/17 08:27:57;;;;;;;;;;;7.40;99.90;;;;;;5083298;28;19924;-84
2022/03/17 08:30:30;;;;;;;;;;;7.40;99.90;;;;;;5071967;28;19921;-82
2022/03/17 08:32:56;;;;;;;;;;;6.60;99.90;;;;;;5084551;28;19935;-85
2022/03/17 08:35:22;;;;;;;;;;;7.50;99.90;;;;;;5084252;28;19935;-82
2022/03/17 08:37:48;;;;;;;;;;;6.70;99.90;;;;;;5081736;28;19920;-86
2022/03/17 08:40:14;;;;;;;;;;;7.50;99.90;;;;;;5087517;28;20046;-81
2022/03/17 08:42:40;;;;;;;;;;;9.50;99.90;;;;;;5090850;28;19931;-82
2022/03/17 08:49:18;;;;;;;;;;;7.60;99.90;;;;;;5089667;28;19958;-80
2022/03/17 08:50:54;;;;;;;;;;;7.40;99.90;;;;;;5085418;28;20389;-81
2022/03/17 08:53:20;;;;;;;;;;;7.50;99.90;;;;;;5086331;28;19920;-85
2022/03/17 08:55:46;;;;;;;;;;;8.00;99.90;;;;;;5085692;28;20580;-82
2022/03/17 08:58:12;;;;;;;;;;;7.40;99.90;;;;;;5083498;28;19944;-86
2022/03/17 09:00:54;;;;;;;;;;;6.70;99.90;;;;;;5086582;28;19928;-83
2022/03/17 09:03:19;;;;;;;;;;;7.30;99.90;;;;;;5074532;28;19920;-84
2022/03/17 09:05:45;;;;;;;;;;;7.40;99.90;;;;;;5068266;28;19940;-91
2022/03/17 09:08:11;;;;;;;;;;;8.20;99.90;;;;;;5075318;28;20243;-84
2022/03/17 09:10:38;;;;;;;;;;;7.60;99.90;;;;;;5087006;28;19932;-84
2022/03/17 09:13:10;;;;;;;;;;;7.40;99.90;;;;;;5083741;28;19920;-84
2022/03/17 09:15:37;;;;;;;;;;;7.40;99.90;;;;;;5090325;28;19920;-82
2022/03/17 09:18:03;;;;;;;;;;;7.50;99.90;;;;;;5086571;28;19958;-88
2022/03/17 09:20:29;;;;;;;;;;;7.60;99.90;;;;;;5090800;28;20307;-84
2022/03/17 09:22:56;;;;;;;;;;;8.80;99.90;;;;;;5090476;28;19942;-85
2022/03/17 09:25:23;;;;;;;;;;;6.70;99.90;;;;;;5086148;28;19953;-81
2022/03/17 09:28:06;;;;;;;;;;;7.50;99.90;;;;;;5090987;28;20023;-82
2022/03/17 09:30:32;;;;;;;;;;;7.70;99.90;;;;;;5076073;28;19924;-86
2022/03/17 09:32:59;;;;;;;;;;;7.60;99.90;;;;;;5080388;28;20022;-84
2022/03/17 09:35:27;;;;;;;;;;;8.40;99.90;;;;;;5088978;28;19949;-83
2022/03/17 09:38:04;;;;;;;;;;;7.60;99.90;;;;;;5092755;28;19955;-82
2022/03/17 09:40:30;;;;;;;;;;;7.60;99.90;;;;;;5089125;28;19920;-86
2022/03/17 09:43:18;;;;;;;;;;;7.70;99.90;;;;;;5089833;28;20026;-82
2022/03/17 09:45:51;;;;;;;;;;;8.90;99.90;;;;;;5090430;28;19966;-82
2022/03/17 09:48:21;;;;;;;;;;;7.90;99.90;;;;;;5088055;28;19991;-83
2022/03/17 09:51:13;;;;;;;;;;;8.70;99.90;;;;;;5093839;28;19932;-85
2022/03/17 09:53:39;;;;;;;;;;;7.70;99.90;;;;;;5081339;28;20114;-87
2022/03/17 09:56:05;;;;;;;;;;;8.20;99.90;;;;;;5092338;28;19920;-84
2022/03/17 09:58:30;;;;;;;;;;;8.10;99.90;;;;;;5091175;28;19931;-86
2022/03/17 10:00:59;;;;;;;;;;;8.30;99.90;;;;;;5086644;28;20370;-84
2022/03/17 10:03:25;;;;;;;;;;;8.30;99.90;;;;;;5086214;28;20014;-86
2022/03/17 10:06:06;;;;;;;;;;;9.00;99.90;;;;;;5082821;28;19920;-82
2022/03/17 10:08:37;;;;;;;;;;;8.80;99.90;;;;;;5081755;28;19924;-82
2022/03/17 10:11:03;;;;;;;;;;;8.70;99.90;;;;;;5083199;28;19938;-82
2022/03/17 10:13:29;;;;;;;;;;;8.90;99.90;;;;;;5082323;28;19928;-82
2022/03/17 10:16:08;;;;;;;;;;;9.00;99.90;;;;;;5083351;28;19932;-87
2022/03/17 10:18:37;;;;;;;;;;;7.90;99.90;;;;;;5081532;28;20012;-86
2022/03/17 10:21:06;;;;;;;;;;;9.30;99.90;;;;;;5084427;28;19931;-85
2022/03/17 10:23:32;;;;;;;;;;;9.10;99.90;;;;;;5094974;28;19927;-86
2022/03/17 10:26:07;;;;;;;;;;;9.30;99.90;;;;;;5092944;28;20015;-84
2022/03/17 10:28:32;;;;;;;;;;;9.20;99.90;;;;;;5084298;28;19924;-91
2022/03/17 10:31:04;;;;;;;;;;;9.20;99.90;;;;;;5081745;28;20260;-84
2022/03/17 10:33:30;;;;;;;;;;;9.20;99.90;;;;;;5082845;28;19973;-81
2022/03/17 10:36:15;;;;;;;;;;;10.30;99.90;;;;;;5081709;28;20386;-87
2022/03/17 10:38:42;;;;;;;;;;;9.40;99.90;;;;;;5078889;28;19927;-82
2022/03/17 10:41:12;;;;;;;;;;;9.40;99.90;;;;;;5078267;28;19920;-84
2022/03/17 10:43:42;;;;;;;;;;;10.10;99.90;;;;;;5082757;28;19928;-83
2022/03/17 10:46:07;;;;;;;;;;;9.70;99.90;;;;;;5085981;28;19980;-85
2022/03/17 10:48:51;;;;;;;;;;;10.20;99.90;;;;;;5085556;28;20422;-82
2022/03/17 10:51:36;;;;;;;;;;;9.10;99.90;;;;;;5083834;28;20434;-85
2022/03/17 10:54:29;;;;;;;;;;;9.80;99.90;;;;;;5086442;28;20014;-83
2022/03/17 10:57:15;;;;;;;;;;;9.80;99.90;;;;;;5081982;28;19938;-83
2022/03/17 10:59:44;;;;;;;;;;;9.90;99.90;;;;;;5085021;28;19924;-87
2022/03/17 11:02:21;;;;;;;;;;;10.10;99.90;;;;;;5092576;28;19927;-84
2022/03/17 11:04:52;;;;;;;;;;;10.40;99.90;;;;;;5087469;28;19957;-84
2022/03/17 11:07:19;;;;;;;;;;;10.00;99.90;;;;;;5093659;28;19992;-86
2022/03/17 11:09:46;;;;;;;;;;;12.10;99.90;;;;;;5092860;28;19920;-84
2022/03/17 11:12:20;;;;;;;;;;;10.50;99.90;;;;;;5093545;28;19923;-86
2022/03/17 11:14:48;;;;;;;;;;;10.50;99.90;;;;;;5078990;28;19926;-85
2022/03/17 11:17:26;;;;;;;;;;;10.70;99.90;;;;;;5086299;28;19920;-83
2022/03/17 11:19:53;;;;;;;;;;;10.30;99.90;;;;;;5086764;28;19924;-83
2022/03/17 11:22:22;;;;;;;;;;;11.20;99.90;;;;;;5088890;28;19920;-83
2022/03/17 11:25:23;;;;;;;;;;;12.20;99.90;;;;;;5085568;28;19959;-81
2022/03/17 11:27:50;;;;;;;;;;;11.50;99.90;;;;;;5087951;28;19927;-82
2022/03/17 11:30:16;;;;;;;;;;;11.60;99.90;;;;;;5085663;28;20083;-85
2022/03/17 11:32:50;;;;;;;;;;;11.80;99.90;;;;;;5083243;28;19941;-86
2022/03/17 11:35:17;;;;;;;;;;;11.90;99.90;;;;;;5081935;28;19916;-85
2022/03/17 11:38:01;;;;;;;;;;;12.10;99.90;;;;;;5086491;28;19931;-82
2022/03/17 11:40:53;;;;;;;;;;;12.00;99.90;;;;;;5081793;28;19927;-84
2022/03/17 11:43:37;;;;;;;;;;;11.90;99.90;;;;;;5080981;28;19943;-84
2022/03/17 11:46:09;;;;;;;;;;;11.50;99.90;;;;;;5086827;28;20367;-86
2022/03/17 11:48:37;;;;;;;;;;;12.30;99.90;;;;;;5078849;28;20019;-87
2022/03/17 11:51:04;;;;;;;;;;;12.50;99.90;;;;;;5078855;28;20356;-84
2022/03/17 11:53:37;;;;;;;;;;;12.60;99.90;;;;;;5084775;28;19960;-85
2022/03/17 11:56:13;;;;;;;;;;;;;;;;;;;;;
2022/03/17 11:58:48;;;;;;;;;;;12.40;99.70;;;;;;5080934;28;19944;-83
2022/03/17 12:01:34;;;;;;;;;;;12.50;99.90;;;;;;5086086;28;19934;-81
2022/03/17 12:04:03;;;;;;;;;;;12.60;99.90;;;;;;5087081;28;19931;-86
2022/03/17 12:06:33;;;;;;;;;;;12.40;99.10;;;;;;5086683;28;19920;-81
2022/03/17 12:09:00;;;;;;;;;;;12.90;97.40;;;;;;5088367;28;19920;-79
2022/03/17 12:11:27;;;;;;;;;;;13.10;97.70;;;;;;5079406;28;19924;-83
2022/03/17 12:14:14;;;;;;;;;;;13.50;96.70;;;;;;5081002;28;19920;-81
2022/03/17 12:16:51;;;;;;;;;;;13.30;97.90;;;;;;5081281;28;19940;-86
2022/03/17 12:19:51;;;;;;;;;;;13.20;92.30;;;;;;5084758;28;19970;-84
2022/03/17 12:22:20;;;;;;;;;;;13.00;94.20;;;;;;5051444;28;19977;-83
2022/03/17 12:24:46;;;;;;;;;;;13.00;96.70;;;;;;5089781;28;19972;-83
2022/03/17 12:27:13;;;;;;;;;;;13.10;98.10;;;;;;5087904;28;20018;-88
2022/03/17 12:29:39;;;;;;;;;;;13.10;98.20;;;;;;5084806;28;19920;-87
2022/03/17 12:32:06;;;;;;;;;;;13.20;98.60;;;;;;5084848;22;20070;-89
2022/03/17 12:34:32;;;;;;;;;;;13.10;93.10;;;;;;5066416;28;19993;-86
2022/03/17 12:37:04;;;;;;;;;;;12.90;93.20;;;;;;5069845;28;20367;-88
2022/03/17 12:39:37;;;;;;;;;;;13.10;94.70;;;;;;5068163;28;19929;-86
2022/03/17 12:42:14;;;;;;;;;;;12.90;98.10;;;;;;5065880;28;19921;-84
2022/03/17 12:44:50;;;;;;;;;;;12.90;95.50;;;;;;5066227;28;20034;-87
2022/03/17 12:47:16;;;;;;;;;;;13.00;95.40;;;;;;5067853;28;19916;-85
2022/03/17 12:49:55;;;;;;;;;;;13.10;97.00;;;;;;5059616;28;19928;-83
2022/03/17 12:52:26;;;;;;;;;;;12.90;96.20;;;;;;5053579;28;19921;-85
2022/03/17 12:54:56;;;;;;;;;;;13.30;96.30;;;;;;5052806;28;19921;-83
2022/03/17 12:57:41;;;;;;;;;;;13.40;92.40;;;;;;5059031;28;20699;-83
2022/03/17 13:00:23;;;;;;;;;;;13.40;94.30;;;;;;5068234;28;20319;-87
2022/03/17 13:03:04;;;;;;;;;;;13.50;94.00;;;;;;5062680;28;19924;-88
2022/03/17 13:08:18;;;;;;;;;;;13.40;92.20;;;;;;5076103;28;19977;-90
2022/03/17 13:16:29;;;;;;;;;;;13.00;95.90;;;;;;5055516;28;19936;-86
2022/03/17 13:18:54;;;;;;;;;;;12.90;92.70;;;;;;5067894;28;19924;-83
2022/03/17 13:21:21;;;;;;;;;;;12.60;86.80;;;;;;5069127;28;19921;-85
2022/03/17 13:23:48;;;;;;;;;;;12.40;93.60;;;;;;5066269;28;20053;-84
2022/03/17 13:26:27;;;;;;;;;;;12.10;94.80;;;;;;5066255;28;19928;-86
2022/03/17 13:29:05;;;;;;;;;;;12.40;94.10;;;;;;5067394;28;19928;-83
2022/03/17 13:31:33;;;;;;;;;;;12.40;95.00;;;;;;5036145;28;19925;-83
2022/03/17 13:34:02;;;;;;;;;;;12.50;95.80;;;;;;5064697;28;19932;-85
2022/03/17 13:36:46;;;;;;;;;;;12.60;96.20;;;;;;5066482;28;20015;-86
2022/03/17 13:39:12;;;;;;;;;;;12.50;93.50;;;;;;5065171;28;20311;-85
2022/03/17 13:41:38;;;;;;;;;;;12.40;94.40;;;;;;5063717;28;20054;-87
2022/03/17 13:44:21;;;;;;;;;;;12.30;94.20;;;;;;5068555;28;19920;-86
2022/03/17 13:46:46;;;;;;;;;;;11.30;93.40;;;;;;5037037;28;20265;-88
2022/03/17 13:49:13;;;;;;;;;;;12.00;93.40;;;;;;5083496;22;19931;-86
2022/03/17 13:51:51;;;;;;;;;;;12.20;91.60;;;;;;5078464;28;19921;-84
2022/03/17 13:54:17;;;;;;;;;;;11.60;94.90;;;;;;5082493;28;20024;-87
2022/03/17 13:56:43;;;;;;;;;;;13.20;95.70;;;;;;5099068;28;20035;-83
2022/03/17 13:59:24;;;;;;;;;;;12.20;96.30;;;;;;5090055;28;19934;-83
2022/03/17 14:02:09;;;;;;;;;;;12.10;92.30;;;;;;5090980;28;19934;-84
2022/03/17 14:04:39;;;;;;;;;;;12.00;94.40;;;;;;5090737;28;20228;-83
2022/03/17 14:07:05;;;;;;;;;;;11.80;94.10;;;;;;5090654;28;19924;-83
2022/03/17 14:09:36;;;;;;;;;;;11.70;96.20;;;;;;5095249;28;20345;-90
2022/03/17 14:12:02;;;;;;;;;;;11.60;95.40;;;;;;5111141;28;19920;-86
2022/03/17 14:14:28;;;;;;;;;;;11.10;91.90;;;;;;5096019;28;19927;-86
2022/03/17 14:16:53;;;;;;;;;;;11.40;96.80;;;;;;5090598;28;19964;-84
2022/03/17 14:19:31;;;;;;;;;;;11.30;94.80;;;;;;5092892;28;19927;-82
2022/03/17 14:25:05;;;;;;;;;;;11.20;94.60;;;;;;5094195;28;19959;-85
2022/03/17 14:30:53;;;;;;;;;;;11.00;96.40;;;;;;5095830;28;19939;-85
2022/03/17 14:33:19;;;;;;;;;;;11.10;93.60;;;;;;5088975;28;20358;-84
2022/03/17 14:35:51;;;;;;;;;;;10.90;96.20;;;;;;5096381;28;19934;-87
2022/03/17 14:38:17;;;;;;;;;;;10.80;98.50;;;;;;5107392;28;20351;-87
2022/03/17 14:40:46;;;;;;;;;;;11.30;97.90;;;;;;5092592;28;20149;-85
2022/03/17 14:43:12;;;;;;;;;;;10.30;97.40;;;;;;5080614;28;19944;-84
2022/03/17 14:45:38;;;;;;;;;;;11.30;97.90;;;;;;5081277;28;19956;-87
2022/03/17 14:48:06;;;;;;;;;;;11.10;97.90;;;;;;5091100;28;19981;-87
2022/03/17 14:50:32;;;;;;;;;;;10.70;97.30;;;;;;5090905;28;19954;-84
2022/03/17 14:53:16;;;;;;;;;;;10.70;96.80;;;;;;5089434;28;19935;-85
2022/03/17 14:55:57;;;;;;;;;;;9.50;95.60;;;;;;5089143;28;19935;-84
2022/03/17 14:58:39;;;;;;;;;;;10.70;96.10;;;;;;5091043;28;19962;-84
2022/03/17 15:01:06;;;;;;;;;;;10.60;97.60;;;;;;5103053;28;19924;-85
2022/03/17 15:03:39;;;;;;;;;;;11.40;98.60;;;;;;5089121;28;19915;-86
2022/03/17 15:06:06;;;;;;;;;;;10.60;93.80;;;;;;5089562;28;19956;-87
2022/03/17 15:08:44;;;;;;;;;;;9.60;95.40;;;;;;5085399;28;19949;-81